Time;durP1;ratioP1;P1;durP2;ratioP2;P2;SDS_P1;SDS_P2;PMS_P1;PMS_P2;Temp;Humidity;BMP_temperature;BMP_pressure;BME280_temperature;BME280_humidity;BME280_pressure;Samples;Min_cycle;Max_cycle;Signal;HPM_P1;HPM_P2
2021/11/19 00:01:37;;;;;;;53.65;50.05;;;;;;;;;;4957437;28;20054;-73
2021/11/19 00:04:04;;;;;;;53.78;49.42;;;;;;;;;;4957366;28;20363;-72
2021/11/19 00:06:30;;;;;;;56.15;52.22;;;;;;;;;;4953662;28;20125;-72
2021/11/19 00:08:56;;;;;;;57.45;53.17;;;;;;;;;;4951108;28;20148;-73
2021/11/19 00:11:24;;;;;;;54.28;50.17;;;;;;;;;;4958477;28;20028;-73
2021/11/19 00:13:51;;;;;;;55.63;51.47;;;;;;;;;;4946414;28;20371;-73
2021/11/19 00:16:18;;;;;;;55.60;50.97;;;;;;;;;;4968227;28;20019;-73
2021/11/19 00:18:44;;;;;;;55.45;50.80;;;;;;;;;;4951231;28;20087;-73
2021/11/19 00:21:11;;;;;;;51.08;46.83;;;;;;;;;;4955013;28;20069;-73
2021/11/19 00:23:39;;;;;;;53.88;49.67;;;;;;;;;;4953692;28;20038;-73
2021/11/19 00:26:05;;;;;;;52.38;48.17;;;;;;;;;;4962914;28;20031;-73
2021/11/19 00:28:32;;;;;;;51.63;47.75;;;;;;;;;;4957526;28;20073;-73
2021/11/19 00:30:58;;;;;;;53.00;49.03;;;;;;;;;;4955332;28;20375;-73
2021/11/19 00:33:24;;;;;;;54.15;49.70;;;;;;;;;;4955441;28;20032;-73
2021/11/19 00:35:51;;;;;;;55.63;51.13;;;;;;;;;;4952840;28;20430;-73
2021/11/19 00:38:18;;;;;;;54.40;50.60;;;;;;;;;;4964666;28;20027;-72
2021/11/19 00:40:47;;;;;;;55.08;51.15;;;;;;;;;;4958458;28;20031;-73
2021/11/19 00:43:13;;;;;;;58.25;53.35;;;;;;;;;;4960525;28;20019;-72
2021/11/19 00:45:40;;;;;;;59.05;54.13;;;;;;;;;;4956080;28;20034;-73
2021/11/19 00:48:07;;;;;;;58.47;52.92;;;;;;;;;;4951038;28;20221;-72
2021/11/19 00:50:36;;;;;;;56.85;52.08;;;;;;;;;;4965195;28;20566;-73
2021/11/19 00:53:03;;;;;;;55.08;50.88;;;;;;;;;;4952193;28;20046;-73
2021/11/19 00:55:29;;;;;;;54.85;50.30;;;;;;;;;;4958934;28;20031;-73
2021/11/19 00:57:55;;;;;;;57.17;52.25;;;;;;;;;;4952978;28;20047;-73
2021/11/19 01:00:24;;;;;;;53.80;49.58;;;;;;;;;;4956528;28;20027;-73
2021/11/19 01:02:50;;;;;;;52.85;48.72;;;;;;;;;;4960134;28;20039;-73
2021/11/19 01:05:17;;;;;;;51.05;47.00;;;;;;;;;;4952858;28;20078;-72
2021/11/19 01:07:43;;;;;;;51.83;47.78;;;;;;;;;;4945505;28;20027;-72
2021/11/19 01:10:13;;;;;;;51.70;48.03;;;;;;;;;;4955217;28;20505;-73
2021/11/19 01:12:39;;;;;;;52.83;49.00;;;;;;;;;;4959033;28;20102;-73
2021/11/19 01:15:09;;;;;;;55.25;50.70;;;;;;;;;;4953199;28;20094;-73
2021/11/19 01:17:49;;;;;;;53.17;49.13;;;;;;;;;;4955527;28;20086;-73
2021/11/19 01:20:19;;;;;;;53.08;49.20;;;;;;;;;;4955110;28;20443;-73
2021/11/19 01:22:47;;;;;;;53.17;49.35;;;;;;;;;;4951437;28;20031;-73
2021/11/19 01:25:16;;;;;;;54.97;50.80;;;;;;;;;;4954519;28;20167;-73
2021/11/19 01:27:42;;;;;;;51.55;47.80;;;;;;;;;;4955229;28;20034;-75
2021/11/19 01:30:10;;;;;;;48.97;45.53;;;;;;;;;;4946768;28;20023;-72
2021/11/19 01:32:37;;;;;;;51.65;48.30;;;;;;;;;;4951853;28;20023;-74
2021/11/19 01:35:03;;;;;;;53.50;50.00;;;;;;;;;;4955918;28;20023;-72
2021/11/19 01:37:29;;;;;;;54.47;50.53;;;;;;;;;;4960196;28;20036;-72
2021/11/19 01:39:55;;;;;;;54.20;50.25;;;;;;;;;;4950160;28;20011;-73
2021/11/19 01:42:21;;;;;;;51.22;48.05;;;;;;;;;;4952825;28;20039;-73
2021/11/19 01:44:53;;;;;;;52.78;49.10;;;;;;;;;;4951644;28;20505;-73
2021/11/19 01:47:19;;;;;;;;;;;;;;;;;;4970163;28;20529;-73
2021/11/19 01:49:46;;;;;;;53.40;49.63;;;;;;;;;;4950220;28;19969;-73
2021/11/19 01:52:17;;;;;;;51.38;47.78;;;;;;;;;;4953139;28;20031;-73
2021/11/19 01:54:43;;;;;;;50.63;47.43;;;;;;;;;;4955115;28;20509;-73
2021/11/19 01:57:14;;;;;;;49.60;46.28;;;;;;;;;;4958493;28;20030;-73
2021/11/19 01:59:49;;;;;;;49.90;46.00;;;;;;;;;;4949227;28;20876;-73
2021/11/19 02:02:21;;;;;;;51.17;46.90;;;;;;;;;;4947547;28;20426;-72
2021/11/19 02:04:59;;;;;;;50.22;46.80;;;;;;;;;;4955904;28;20035;-73
2021/11/19 02:07:36;;;;;;;51.72;48.33;;;;;;;;;;4958017;28;20123;-73
2021/11/19 02:10:10;;;;;;;49.53;46.55;;;;;;;;;;4946989;28;20382;-73
2021/11/19 02:12:44;;;;;;;47.72;44.78;;;;;;;;;;4956520;28;20506;-73
2021/11/19 02:15:21;;;;;;;51.03;47.63;;;;;;;;;;4957932;28;20027;-73
2021/11/19 02:17:54;;;;;;;50.22;46.70;;;;;;;;;;4957861;28;20577;-73
2021/11/19 02:20:23;;;;;;;50.30;46.42;;;;;;;;;;4963460;28;20089;-73
2021/11/19 02:22:55;;;;;;;51.38;48.00;;;;;;;;;;4951064;28;20027;-73
2021/11/19 02:25:27;;;;;;;54.38;50.65;;;;;;;;;;4954634;28;20427;-72
2021/11/19 02:28:01;;;;;;;53.22;48.47;;;;;;;;;;4955670;28;20521;-72
2021/11/19 02:30:33;;;;;;;49.53;46.05;;;;;;;;;;4955300;28;20131;-73
2021/11/19 02:33:01;;;;;;;50.08;46.08;;;;;;;;;;4954052;28;20023;-73
2021/11/19 02:35:31;;;;;;;54.15;50.00;;;;;;;;;;4955103;28;20039;-72
2021/11/19 02:37:59;;;;;;;55.33;51.53;;;;;;;;;;4949765;28;20678;-73
2021/11/19 02:40:26;;;;;;;54.50;50.67;;;;;;;;;;4950350;28;20023;-73
2021/11/19 02:42:54;;;;;;;53.88;50.15;;;;;;;;;;4952304;28;20031;-73
2021/11/19 02:45:32;;;;;;;55.40;52.08;;;;;;;;;;4958120;28;20040;-73
2021/11/19 02:47:58;;;;;;;56.47;52.40;;;;;;;;;;4951617;28;20599;-73
2021/11/19 02:50:25;;;;;;;51.33;47.75;;;;;;;;;;4951748;28;20461;-73
2021/11/19 02:52:52;;;;;;;53.88;50.10;;;;;;;;;;4952330;28;20086;-73
2021/11/19 02:55:20;;;;;;;53.28;49.67;;;;;;;;;;4952043;28;20023;-73
2021/11/19 02:57:46;;;;;;;53.63;49.72;;;;;;;;;;4951264;28;20047;-73
2021/11/19 03:00:16;;;;;;;53.70;49.33;;;;;;;;;;4951332;28;20059;-73
2021/11/19 03:02:43;;;;;;;55.65;51.35;;;;;;;;;;4965533;28;20047;-73
2021/11/19 03:05:13;;;;;;;55.53;51.22;;;;;;;;;;4952745;28;20118;-74
2021/11/19 03:07:39;;;;;;;53.83;49.95;;;;;;;;;;4962996;28;20039;-73
2021/11/19 03:10:09;;;;;;;55.13;51.70;;;;;;;;;;4951002;28;20373;-72
2021/11/19 03:12:36;;;;;;;56.95;52.55;;;;;;;;;;4938730;28;20391;-72
2021/11/19 03:15:05;;;;;;;58.17;54.45;;;;;;;;;;4945511;28;20110;-73
2021/11/19 03:17:31;;;;;;;57.22;53.40;;;;;;;;;;4960995;28;20498;-72
2021/11/19 03:19:58;;;;;;;58.85;54.78;;;;;;;;;;4954691;28;20074;-72
2021/11/19 03:22:25;;;;;;;61.78;57.88;;;;;;;;;;4939517;28;20035;-72
2021/11/19 03:24:52;;;;;;;60.22;56.08;;;;;;;;;;4955588;28;20434;-73
2021/11/19 03:27:18;;;;;;;60.55;56.65;;;;;;;;;;4962356;28;20026;-73
2021/11/19 03:29:45;;;;;;;55.50;52.03;;;;;;;;;;4954112;28;20031;-72
2021/11/19 03:32:13;;;;;;;60.22;55.80;;;;;;;;;;4956231;28;20035;-72
2021/11/19 03:34:39;;;;;;;59.00;55.03;;;;;;;;;;4953976;28;20043;-72
2021/11/19 03:37:05;;;;;;;59.25;55.72;;;;;;;;;;4952784;28;20401;-73
2021/11/19 03:39:32;;;;;;;59.13;55.00;;;;;;;;;;4955215;28;20023;-72
2021/11/19 03:42:00;;;;;;;58.45;54.47;;;;;;;;;;4959835;28;20054;-72
2021/11/19 03:44:26;;;;;;;57.08;53.17;;;;;;;;;;4956777;28;20442;-73
2021/11/19 03:46:54;;;;;;;59.03;55.03;;;;;;;;;;4956818;28;20031;-72
2021/11/19 03:49:20;;;;;;;57.08;53.15;;;;;;;;;;4953942;28;20069;-73
2021/11/19 03:51:49;;;;;;;57.50;53.80;;;;;;;;;;4962755;28;20033;-72
2021/11/19 03:54:16;;;;;;;57.55;53.78;;;;;;;;;;4957529;28;20059;-74
2021/11/19 03:56:43;;;;;;;59.35;54.75;;;;;;;;;;4956247;28;20018;-72
2021/11/19 03:59:09;;;;;;;58.85;54.45;;;;;;;;;;4952988;28;20027;-71
2021/11/19 04:01:38;;;;;;;58.50;54.53;;;;;;;;;;4957664;28;20142;-72
2021/11/19 04:04:05;;;;;;;58.20;53.50;;;;;;;;;;4970723;28;20027;-72
2021/11/19 04:06:31;;;;;;;55.80;51.80;;;;;;;;;;4956306;28;20065;-72
2021/11/19 04:08:58;;;;;;;58.15;53.83;;;;;;;;;;4957067;28;20031;-72
2021/11/19 04:11:25;;;;;;;57.25;53.15;;;;;;;;;;4959197;28;20039;-72
2021/11/19 04:13:51;;;;;;;61.13;57.08;;;;;;;;;;4954291;28;20066;-72
2021/11/19 04:16:19;;;;;;;60.70;56.45;;;;;;;;;;4957527;28;20030;-74
2021/11/19 04:18:46;;;;;;;59.17;54.70;;;;;;;;;;4958441;28;20411;-72
2021/11/19 04:21:13;;;;;;;57.30;53.13;;;;;;;;;;4948727;28;20024;-72
2021/11/19 04:23:40;;;;;;;60.28;55.90;;;;;;;;;;4952730;28;20126;-72
2021/11/19 04:26:07;;;;;;;56.35;52.67;;;;;;;;;;4958212;28;20387;-72
2021/11/19 04:28:33;;;;;;;60.20;55.40;;;;;;;;;;4956023;28;20391;-72
2021/11/19 04:31:00;;;;;;;57.92;54.03;;;;;;;;;;4961054;28;20039;-72
2021/11/19 04:33:27;;;;;;;59.05;54.85;;;;;;;;;;4960172;28;20038;-73
2021/11/19 04:35:53;;;;;;;58.75;55.00;;;;;;;;;;4954451;28;20047;-73
2021/11/19 04:38:19;;;;;;;59.13;54.83;;;;;;;;;;4949091;28;20034;-73
2021/11/19 04:40:46;;;;;;;56.83;52.63;;;;;;;;;;4955769;28;20071;-72
2021/11/19 04:43:12;;;;;;;56.13;52.15;;;;;;;;;;4953123;28;20074;-72
2021/11/19 04:45:39;;;;;;;57.08;52.83;;;;;;;;;;4955988;28;20030;-72
2021/11/19 04:48:05;;;;;;;56.83;53.05;;;;;;;;;;4955776;28;20663;-72
2021/11/19 04:50:33;;;;;;;57.25;53.65;;;;;;;;;;4954240;28;20406;-72
2021/11/19 04:52:59;;;;;;;54.92;50.92;;;;;;;;;;4955218;28;20027;-73
2021/11/19 04:55:27;;;;;;;57.30;52.95;;;;;;;;;;4955247;28;20034;-72
2021/11/19 04:57:53;;;;;;;57.83;53.20;;;;;;;;;;4950810;28;20743;-72
2021/11/19 05:00:30;;;;;;;52.90;48.67;;;;;;;;;;4957212;28;20030;-72
2021/11/19 05:02:56;;;;;;;54.38;50.17;;;;;;;;;;4946703;28;20120;-72
2021/11/19 05:05:23;;;;;;;52.08;48.60;;;;;;;;;;4953985;28;20634;-72
2021/11/19 05:07:49;;;;;;;53.05;48.95;;;;;;;;;;4950486;28;20100;-72
2021/11/19 05:10:16;;;;;;;52.63;48.78;;;;;;;;;;4953331;28;20397;-73
2021/11/19 05:12:46;;;;;;;51.35;47.30;;;;;;;;;;4956639;28;20034;-72
2021/11/19 05:15:13;;;;;;;51.55;47.83;;;;;;;;;;4953000;28;20028;-72
2021/11/19 05:17:39;;;;;;;52.38;48.63;;;;;;;;;;4953707;28;20042;-72
2021/11/19 05:20:06;;;;;;;50.88;46.88;;;;;;;;;;4958820;28;20402;-72
2021/11/19 05:22:32;;;;;;;52.60;49.05;;;;;;;;;;4952897;28;20031;-72
2021/11/19 05:24:58;;;;;;;52.03;48.40;;;;;;;;;;4958466;28;20031;-72
2021/11/19 05:27:25;;;;;;;54.55;50.28;;;;;;;;;;4958915;28;20042;-72
2021/11/19 05:29:51;;;;;;;51.65;47.45;;;;;;;;;;4953894;28;20597;-73
2021/11/19 05:32:17;;;;;;;54.97;50.72;;;;;;;;;;4953306;28;20031;-72
2021/11/19 05:34:43;;;;;;;52.15;47.88;;;;;;;;;;4954350;28;20062;-72
2021/11/19 05:37:10;;;;;;;49.88;46.67;;;;;;;;;;4948675;28;20036;-72
2021/11/19 05:39:36;;;;;;;52.25;48.25;;;;;;;;;;4947226;28;20019;-73
2021/11/19 05:42:04;;;;;;;51.35;47.45;;;;;;;;;;4955391;28;20047;-73
2021/11/19 05:44:31;;;;;;;53.05;48.40;;;;;;;;;;4951626;28;20063;-72
2021/11/19 05:46:58;;;;;;;51.83;47.80;;;;;;;;;;4951635;28;20417;-72
2021/11/19 05:49:25;;;;;;;51.70;48.20;;;;;;;;;;4950688;28;20036;-73
2021/11/19 05:51:52;;;;;;;49.83;46.20;;;;;;;;;;4953522;28;20058;-72
2021/11/19 05:54:19;;;;;;;49.85;45.47;;;;;;;;;;4951455;28;20098;-72
2021/11/19 05:56:46;;;;;;;48.38;44.60;;;;;;;;;;4950246;28;20062;-72
2021/11/19 05:59:12;;;;;;;49.22;45.33;;;;;;;;;;4947649;28;20034;-72
2021/11/19 06:01:38;;;;;;;51.40;46.97;;;;;;;;;;4953549;28;20058;-72
2021/11/19 06:04:05;;;;;;;51.70;48.20;;;;;;;;;;4950335;28;20124;-72
2021/11/19 06:06:31;;;;;;;51.63;46.75;;;;;;;;;;4939260;28;20038;-72
2021/11/19 06:08:57;;;;;;;53.42;48.72;;;;;;;;;;4950201;28;20031;-73
2021/11/19 06:11:25;;;;;;;50.53;46.90;;;;;;;;;;4951848;28;20051;-73
2021/11/19 06:13:54;;;;;;;53.63;48.35;;;;;;;;;;4945949;28;20508;-73
2021/11/19 06:16:23;;;;;;;46.97;43.20;;;;;;;;;;4948211;28;20481;-72
2021/11/19 06:18:54;;;;;;;52.53;47.55;;;;;;;;;;4948617;28;20486;-71
2021/11/19 06:21:20;;;;;;;;;;;;;;;;;;4950130;28;20118;-71
2021/11/19 06:23:48;;;;;;;53.13;48.28;;;;;;;;;;4949596;28;20006;-72
2021/11/19 06:26:16;;;;;;;50.90;46.85;;;;;;;;;;4956034;28;20034;-72
2021/11/19 06:28:45;;;;;;;48.17;44.60;;;;;;;;;;4951987;28;20058;-71
2021/11/19 06:31:12;;;;;;;47.60;43.70;;;;;;;;;;4945480;28;20463;-72
2021/11/19 06:33:38;;;;;;;47.75;43.88;;;;;;;;;;4947028;28;20277;-72
2021/11/19 06:36:05;;;;;;;50.10;45.83;;;;;;;;;;4953988;28;20034;-71
2021/11/19 06:38:31;;;;;;;51.70;47.20;;;;;;;;;;4946865;28;20035;-71
2021/11/19 06:40:57;;;;;;;51.53;47.63;;;;;;;;;;4948363;28;20027;-72
2021/11/19 06:43:23;;;;;;;50.15;46.55;;;;;;;;;;4948962;28;20075;-72
2021/11/19 06:45:50;;;;;;;46.05;42.38;;;;;;;;;;4929738;28;20031;-72
2021/11/19 06:48:16;;;;;;;44.42;41.03;;;;;;;;;;4951064;28;20088;-73
2021/11/19 06:50:44;;;;;;;46.72;42.72;;;;;;;;;;4951994;28;20114;-72
2021/11/19 06:53:10;;;;;;;46.28;42.40;;;;;;;;;;4953011;28;20055;-72
2021/11/19 06:58:13;;;;;;;43.53;40.22;;;;;;;;;;4992011;23;20043;-78
2021/11/19 07:00:41;;;;;;;43.70;39.55;;;;;;;;;;4976416;28;20426;-77
2021/11/19 07:03:07;;;;;;;43.10;39.33;;;;;;;;;;4979807;28;20517;-77
2021/11/19 07:05:34;;;;;;;52.10;47.42;;;;;;;;;;4975745;28;20026;-78
2021/11/19 07:08:04;;;;;;;46.72;42.50;;;;;;;;;;4954147;28;20433;-77
2021/11/19 07:10:30;;;;;;;47.42;43.53;;;;;;;;;;4978507;28;20026;-77
2021/11/19 07:12:57;;;;;;;49.80;46.00;;;;;;;;;;4973426;28;20029;-77
2021/11/19 07:15:23;;;;;;;46.95;42.95;;;;;;;;;;4976592;28;20434;-77
2021/11/19 07:17:51;;;;;;;45.63;41.20;;;;;;;;;;4978927;28;20031;-77
2021/11/19 07:20:18;;;;;;;45.58;42.10;;;;;;;;;;4978933;28;20027;-77
2021/11/19 07:22:44;;;;;;;45.65;41.78;;;;;;;;;;4966893;28;20782;-77
2021/11/19 07:25:13;;;;;;;49.35;44.30;;;;;;;;;;4976212;28;20441;-78
2021/11/19 07:27:40;;;;;;;41.83;38.03;;;;;;;;;;4980617;28;20403;-77
2021/11/19 07:30:08;;;;;;;41.97;37.65;;;;;;;;;;4981479;28;20425;-77
2021/11/19 07:32:34;;;;;;;40.08;36.63;;;;;;;;;;4975872;28;20023;-77
2021/11/19 07:35:03;;;;;;;41.17;37.45;;;;;;;;;;4982437;28;20029;-77
2021/11/19 07:37:29;;;;;;;40.15;36.60;;;;;;;;;;4974925;28;20027;-77
2021/11/19 07:39:55;;;;;;;42.10;38.35;;;;;;;;;;4980565;28;20505;-77
2021/11/19 07:42:21;;;;;;;43.45;38.63;;;;;;;;;;4964391;28;20062;-77
2021/11/19 07:44:47;;;;;;;40.38;36.38;;;;;;;;;;4977462;28;20046;-77
2021/11/19 07:47:13;;;;;;;42.00;37.97;;;;;;;;;;4957622;28;20463;-77
2021/11/19 07:49:39;;;;;;;41.15;37.38;;;;;;;;;;4971670;28;20034;-77
2021/11/19 07:52:06;;;;;;;39.85;35.95;;;;;;;;;;4977272;28;20117;-77
2021/11/19 07:54:32;;;;;;;40.47;36.58;;;;;;;;;;4963730;28;20038;-77
2021/11/19 07:56:58;;;;;;;37.17;34.25;;;;;;;;;;4977328;28;20039;-77
2021/11/19 07:59:26;;;;;;;40.15;36.47;;;;;;;;;;4960147;28;20497;-78
2021/11/19 08:01:55;;;;;;;41.58;34.63;;;;;;;;;;4976860;28;20045;-78
2021/11/19 08:04:21;;;;;;;36.50;33.10;;;;;;;;;;4973206;28;20125;-77
2021/11/19 08:06:48;;;;;;;36.67;33.38;;;;;;;;;;4980063;28;20030;-77
2021/11/19 08:09:14;;;;;;;37.05;33.80;;;;;;;;;;4959986;28;20030;-77
2021/11/19 08:11:40;;;;;;;36.15;32.97;;;;;;;;;;4982604;28;20126;-77
2021/11/19 08:14:06;;;;;;;35.58;31.85;;;;;;;;;;4978222;28;20509;-78
2021/11/19 08:16:39;;;;;;;31.90;29.30;;;;;;;;;;4959468;28;20031;-77
2021/11/19 08:19:07;;;;;;;33.63;30.35;;;;;;;;;;4986847;28;20019;-77
2021/11/19 08:21:33;;;;;;;32.83;30.23;;;;;;;;;;4964913;28;20177;-77
2021/11/19 08:24:01;;;;;;;34.40;31.45;;;;;;;;;;4978178;28;20443;-77
2021/11/19 08:26:32;;;;;;;34.45;31.50;;;;;;;;;;4983892;28;20026;-77
2021/11/19 08:28:59;;;;;;;33.85;30.75;;;;;;;;;;4975278;28;20042;-77
2021/11/19 08:31:26;;;;;;;32.63;29.60;;;;;;;;;;4982309;28;20034;-77
2021/11/19 08:33:53;;;;;;;34.78;31.55;;;;;;;;;;4973960;28;20095;-77
2021/11/19 08:36:20;;;;;;;35.05;31.77;;;;;;;;;;4980148;28;20398;-78
2021/11/19 08:38:47;;;;;;;32.88;29.92;;;;;;;;;;4973099;28;20057;-78
2021/11/19 08:41:15;;;;;;;34.47;31.48;;;;;;;;;;4983630;28;20038;-78
2021/11/19 08:43:43;;;;;;;32.67;30.17;;;;;;;;;;4975829;28;20497;-78
2021/11/19 08:46:11;;;;;;;33.38;30.48;;;;;;;;;;4982591;28;20511;-78
2021/11/19 08:48:39;;;;;;;35.47;32.47;;;;;;;;;;4971654;28;20031;-77
2021/11/19 08:51:07;;;;;;;35.42;32.08;;;;;;;;;;4975775;28;20380;-78
2021/11/19 08:53:34;;;;;;;35.55;32.08;;;;;;;;;;4971261;28;20030;-78
2021/11/19 08:56:01;;;;;;;35.42;32.33;;;;;;;;;;4991368;28;20045;-78
2021/11/19 08:58:29;;;;;;;39.25;35.40;;;;;;;;;;4971852;28;20054;-77
2021/11/19 09:00:57;;;;;;;38.40;35.10;;;;;;;;;;4950640;28;20057;-78
2021/11/19 09:03:23;;;;;;;38.83;35.47;;;;;;;;;;4958315;28;20039;-78
2021/11/19 09:05:50;;;;;;;39.42;36.13;;;;;;;;;;4991035;28;20485;-78
2021/11/19 09:08:17;;;;;;;40.47;37.38;;;;;;;;;;4962114;28;20441;-78
2021/11/19 09:10:44;;;;;;;39.03;36.33;;;;;;;;;;4979640;28;20055;-78
2021/11/19 09:13:11;;;;;;;39.83;36.63;;;;;;;;;;4955333;28;20547;-78
2021/11/19 09:15:37;;;;;;;39.83;36.33;;;;;;;;;;4977144;28;20353;-78
2021/11/19 09:18:03;;;;;;;41.38;38.67;;;;;;;;;;4970333;28;20034;-78
2021/11/19 09:20:48;;;;;;;41.13;38.22;;;;;;;;;;4966540;28;20478;-79
2021/11/19 09:23:19;;;;;;;42.85;39.25;;;;;;;;;;4970243;28;20500;-78
2021/11/19 09:25:46;;;;;;;44.88;41.25;;;;;;;;;;4985366;28;20201;-79
2021/11/19 09:28:13;;;;;;;46.42;43.30;;;;;;;;;;4972226;28;20523;-78
2021/11/19 09:30:41;;;;;;;46.35;43.40;;;;;;;;;;4977846;28;20038;-79
2021/11/19 09:33:09;;;;;;;46.70;43.08;;;;;;;;;;4977441;28;20026;-79
2021/11/19 09:35:36;;;;;;;47.55;44.22;;;;;;;;;;4969773;28;20073;-78
2021/11/19 09:38:03;;;;;;;49.35;45.95;;;;;;;;;;4971080;28;20045;-79
2021/11/19 09:40:31;;;;;;;49.88;46.42;;;;;;;;;;4977967;28;20090;-77
2021/11/19 09:43:06;;;;;;;47.22;44.10;;;;;;;;;;4979666;28;20054;-78
2021/11/19 09:45:32;;;;;;;47.50;43.83;;;;;;;;;;4971691;28;20034;-79
2021/11/19 09:48:13;;;;;;;49.42;46.40;;;;;;;;;;4971663;28;20037;-77
2021/11/19 09:50:58;;;;;;;49.78;46.28;;;;;;;;;;4970292;28;20030;-78
2021/11/19 09:53:24;;;;;;;49.92;46.45;;;;;;;;;;4962888;28;20037;-78
2021/11/19 09:56:09;;;;;;;52.35;49.03;;;;;;;;;;4968541;28;20034;-77
2021/11/19 09:58:35;;;;;;;50.42;46.88;;;;;;;;;;4974259;28;20034;-79
2021/11/19 10:01:16;;;;;;;49.53;46.03;;;;;;;;;;4971109;28;20058;-79
2021/11/19 10:03:42;;;;;;;54.73;51.00;;;;;;;;;;4954673;28;20082;-78
2021/11/19 10:06:11;;;;;;;56.45;52.35;;;;;;;;;;4985915;28;20441;-77
2021/11/19 10:08:47;;;;;;;56.15;52.55;;;;;;;;;;4951407;28;20031;-79
2021/11/19 10:11:26;;;;;;;60.70;56.47;;;;;;;;;;4972301;28;20081;-78
2021/11/19 10:14:15;;;;;;;57.00;53.17;;;;;;;;;;4972825;28;20107;-78
2021/11/19 10:16:49;;;;;;;61.15;56.83;;;;;;;;;;4977502;28;20030;-78
2021/11/19 10:19:30;;;;;;;54.17;51.08;;;;;;;;;;4971616;28;20585;-78
2021/11/19 10:22:04;;;;;;;59.50;55.78;;;;;;;;;;4976992;28;20034;-78
2021/11/19 10:24:30;;;;;;;58.20;54.60;;;;;;;;;;4983916;28;20531;-71
2021/11/19 10:26:56;;;;;;;55.35;51.75;;;;;;;;;;4982425;28;20026;-72
2021/11/19 10:29:24;;;;;;;57.72;54.30;;;;;;;;;;4976745;28;20042;-71
2021/11/19 10:31:51;;;;;;;56.22;52.35;;;;;;;;;;4987866;28;20034;-73
2021/11/19 10:34:23;;;;;;;58.50;54.90;;;;;;;;;;4968037;28;20113;-72
2021/11/19 10:37:08;;;;;;;58.40;54.33;;;;;;;;;;4985518;28;20019;-73
2021/11/19 10:39:59;;;;;;;55.75;52.08;;;;;;;;;;4982511;28;20050;-71
2021/11/19 10:42:43;;;;;;;61.05;56.97;;;;;;;;;;4983057;28;20136;-72
2021/11/19 10:45:28;;;;;;;58.33;54.80;;;;;;;;;;4962520;28;20033;-72
2021/11/19 10:48:06;;;;;;;55.90;52.22;;;;;;;;;;4966229;28;20027;-73
2021/11/19 10:50:51;;;;;;;58.33;54.47;;;;;;;;;;4982909;28;20031;-72
2021/11/19 10:53:20;;;;;;;55.65;51.78;;;;;;;;;;4977304;28;20371;-73
2021/11/19 10:56:01;;;;;;;57.47;53.45;;;;;;;;;;4972632;28;20035;-73
2021/11/19 10:58:43;;;;;;;53.90;50.13;;;;;;;;;;4972869;28;20034;-72
2021/11/19 11:01:14;;;;;;;53.42;50.13;;;;;;;;;;4977947;28;20029;-72
2021/11/19 11:04:01;;;;;;;57.70;54.17;;;;;;;;;;4983351;28;20097;-72
2021/11/19 11:06:33;;;;;;;54.90;50.65;;;;;;;;;;4957789;28;20041;-72
2021/11/19 11:09:16;;;;;;;53.47;49.67;;;;;;;;;;4975843;28;20022;-72
2021/11/19 11:11:43;;;;;;;52.92;49.20;;;;;;;;;;4983454;28;20408;-73
2021/11/19 11:14:09;;;;;;;55.17;51.97;;;;;;;;;;4976559;28;20031;-72
2021/11/19 11:19:12;;;;;;;54.20;50.78;;;;;;;;;;4990075;28;20046;-69
2021/11/19 11:21:40;;;;;;;55.05;51.22;;;;;;;;;;4989611;28;20089;-70
2021/11/19 11:24:06;;;;;;;56.28;52.67;;;;;;;;;;4994805;28;20096;-69
2021/11/19 11:26:42;;;;;;;53.15;49.53;;;;;;;;;;5063444;23;21052;-74
2021/11/19 11:29:17;;;;;;;51.58;48.28;;;;;;;;;;4930321;29;20038;-74
2021/11/19 11:31:46;;;;;;;56.22;52.58;;;;;;;;;;4934746;29;20067;-74
2021/11/19 11:34:19;;;;;;;50.80;47.85;;;;;;;;;;4930128;29;20056;-74
2021/11/19 11:36:54;;;;;;;52.63;49.50;;;;;;;;;;4934409;29;20031;-74
2021/11/19 11:39:22;;;;;;;51.92;48.78;;;;;;;;;;4932082;29;20027;-74
2021/11/19 11:42:23;;;;;;;57.03;53.72;;;;;;;;;;4934473;29;20035;-74
2021/11/19 11:44:51;;;;;;;55.35;51.40;;;;;;;;;;4859056;29;20082;-74
2021/11/19 11:47:32;;;;;;;55.58;52.10;;;;;;;;;;4927503;29;20055;-74
2021/11/19 11:50:00;;;;;;;57.95;54.05;;;;;;;;;;4933269;29;20016;-74
2021/11/19 11:52:44;;;;;;;58.70;54.72;;;;;;;;;;4933723;29;20126;-73
2021/11/19 11:55:16;;;;;;;57.90;53.92;;;;;;;;;;4934111;29;20039;-73
2021/11/19 11:57:56;;;;;;;58.72;54.55;;;;;;;;;;4913607;29;20051;-74
2021/11/19 12:00:41;;;;;;;57.85;54.03;;;;;;;;;;4932949;29;20031;-74
2021/11/19 12:03:14;;;;;;;56.00;51.38;;;;;;;;;;4935926;29;20567;-74
2021/11/19 12:05:50;;;;;;;56.05;52.25;;;;;;;;;;4933396;29;20058;-74
2021/11/19 12:08:22;;;;;;;51.97;48.45;;;;;;;;;;4933237;29;20062;-74
2021/11/19 12:10:51;;;;;;;63.88;59.85;;;;;;;;;;4946323;29;20039;-75
2021/11/19 12:13:38;;;;;;;63.00;58.95;;;;;;;;;;4934180;29;20451;-73
2021/11/19 12:16:13;;;;;;;63.35;59.40;;;;;;;;;;4915681;29;20516;-74
2021/11/19 12:18:49;;;;;;;58.67;55.00;;;;;;;;;;4931210;29;20028;-74
2021/11/19 12:21:22;;;;;;;55.10;51.58;;;;;;;;;;4928087;29;20025;-74
2021/11/19 12:24:07;;;;;;;58.05;53.85;;;;;;;;;;4931781;29;20024;-74
2021/11/19 12:26:33;;;;;;;55.30;51.67;;;;;;;;;;4933982;29;20466;-74
2021/11/19 12:29:07;;;;;;;54.83;51.42;;;;;;;;;;4929605;29;20063;-73
2021/11/19 12:31:37;;;;;;;64.05;59.83;;;;;;;;;;4936317;29;20039;-73
2021/11/19 12:34:17;;;;;;;60.85;56.58;;;;;;;;;;4935065;29;20035;-74
2021/11/19 12:36:52;;;;;;;55.15;51.83;;;;;;;;;;4933805;29;20407;-74
2021/11/19 12:39:19;;;;;;;59.03;55.22;;;;;;;;;;4930911;29;20271;-74
2021/11/19 12:41:50;;;;;;;59.83;55.33;;;;;;;;;;4932217;29;20028;-73
2021/11/19 12:44:40;;;;;;;58.75;55.17;;;;;;;;;;4931630;29;20028;-75
2021/11/19 12:47:18;;;;;;;56.95;53.45;;;;;;;;;;4934591;29;20024;-75
2021/11/19 12:49:50;;;;;;;54.30;51.00;;;;;;;;;;4930898;29;20023;-75
2021/11/19 12:52:46;;;;;;;52.75;49.55;;;;;;;;;;4940136;29;20035;-74
2021/11/19 12:55:19;;;;;;;56.40;52.78;;;;;;;;;;4897898;29;20036;-73
2021/11/19 12:57:51;;;;;;;52.95;49.95;;;;;;;;;;4932237;29;20909;-74
2021/11/19 13:00:27;;;;;;;57.58;53.88;;;;;;;;;;4933726;29;20055;-75
2021/11/19 13:03:12;;;;;;;59.95;56.10;;;;;;;;;;4944702;29;20027;-75
2021/11/19 13:05:58;;;;;;;57.95;54.00;;;;;;;;;;4942035;29;20043;-74
2021/11/19 13:08:36;;;;;;;57.80;54.47;;;;;;;;;;4891231;29;20052;-74
2021/11/19 13:11:28;;;;;;;58.10;54.90;;;;;;;;;;4934059;29;20019;-73
2021/11/19 13:14:14;;;;;;;58.90;54.80;;;;;;;;;;4936472;29;20387;-74
2021/11/19 13:16:44;;;;;;;58.78;54.60;;;;;;;;;;4932375;29;20063;-74
2021/11/19 13:19:40;;;;;;;60.55;56.95;;;;;;;;;;4939733;28;20072;-73
2021/11/19 13:22:27;;;;;;;65.97;62.28;;;;;;;;;;4918965;29;20139;-74
2021/11/19 13:24:53;;;;;;;58.63;54.58;;;;;;;;;;4928681;29;20094;-74
2021/11/19 13:27:19;;;;;;;57.35;53.80;;;;;;;;;;4937350;29;20059;-74
2021/11/19 13:29:48;;;;;;;55.83;51.42;;;;;;;;;;4928914;29;20094;-74
2021/11/19 13:32:32;;;;;;;59.35;55.17;;;;;;;;;;4932956;29;20047;-74
2021/11/19 13:35:03;;;;;;;54.92;51.40;;;;;;;;;;4931199;29;20154;-74
2021/11/19 13:37:48;;;;;;;54.63;51.22;;;;;;;;;;4938871;29;20029;-74
2021/11/19 13:40:29;;;;;;;60.65;57.25;;;;;;;;;;4931585;29;20099;-74
2021/11/19 13:42:57;;;;;;;65.15;61.30;;;;;;;;;;4933924;29;20128;-75
2021/11/19 13:45:29;;;;;;;57.28;53.85;;;;;;;;;;4933191;29;20050;-74
2021/11/19 13:47:58;;;;;;;58.85;55.33;;;;;;;;;;4927673;29;20214;-73
2021/11/19 13:50:32;;;;;;;58.42;54.90;;;;;;;;;;4930889;29;20574;-74
2021/11/19 13:52:58;;;;;;;57.90;54.55;;;;;;;;;;4929359;29;20032;-75
2021/11/19 13:55:31;;;;;;;57.42;54.33;;;;;;;;;;4927782;29;20422;-75
2021/11/19 13:58:05;;;;;;;62.22;58.83;;;;;;;;;;4927235;29;20047;-74
2021/11/19 14:00:37;;;;;;;65.45;61.90;;;;;;;;;;4929273;29;20054;-74
2021/11/19 14:03:03;;;;;;;69.43;65.13;;;;;;;;;;4922641;29;20118;-74
2021/11/19 14:05:38;;;;;;;61.70;57.60;;;;;;;;;;4927706;29;20040;-74
2021/11/19 14:08:14;;;;;;;58.25;54.95;;;;;;;;;;4928679;29;20095;-75
2021/11/19 14:10:56;;;;;;;60.53;56.42;;;;;;;;;;4929532;29;20036;-74
2021/11/19 14:13:36;;;;;;;55.90;52.58;;;;;;;;;;4926982;29;20031;-75
2021/11/19 14:16:26;;;;;;;54.17;51.00;;;;;;;;;;4939533;28;20376;-73
2021/11/19 14:19:09;;;;;;;60.28;56.72;;;;;;;;;;4917117;29;20576;-74
2021/11/19 14:21:59;;;;;;;56.53;52.80;;;;;;;;;;4925594;29;20027;-74
2021/11/19 14:24:44;;;;;;;58.15;54.67;;;;;;;;;;4929485;29;20060;-74
2021/11/19 14:27:12;;;;;;;54.85;51.95;;;;;;;;;;4928151;29;20048;-74
2021/11/19 14:29:43;;;;;;;53.70;50.72;;;;;;;;;;4920975;29;20028;-72
2021/11/19 14:32:10;;;;;;;55.65;52.38;;;;;;;;;;4932986;29;20035;-71
2021/11/19 14:34:36;;;;;;;53.53;50.42;;;;;;;;;;4928249;29;20024;-72
2021/11/19 14:37:09;;;;;;;53.88;50.42;;;;;;;;;;4926444;29;20023;-74
2021/11/19 14:39:36;;;;;;;57.80;54.05;;;;;;;;;;4909067;29;20024;-73
2021/11/19 14:42:04;;;;;;;58.20;54.58;;;;;;;;;;4928807;29;20484;-74